createdAt,value
2023-01-31T00:02:14.927Z,100795.91
2023-01-31T00:05:19.902Z,100794.28
2023-01-31T00:08:23.395Z,100808.00
2023-01-31T00:11:28.756Z,100808.13
2023-01-31T00:14:34.936Z,100811.72
2023-01-31T00:17:38.488Z,100819.31
2023-01-31T00:20:42.955Z,100821.63
2023-01-31T00:23:52.495Z,100824.41
2023-01-31T00:26:57.593Z,100818.38
2023-01-31T00:30:04.108Z,100826.09
2023-01-31T00:33:07.667Z,100838.97
2023-01-31T00:36:15.387Z,100823.38
2023-01-31T00:39:18.853Z,100813.16
2023-01-31T00:42:25.110Z,100837.28
2023-01-31T00:45:30.262Z,100842.38
2023-01-31T00:48:36.196Z,100846.78
2023-01-31T00:51:39.393Z,100858.75
2023-01-31T00:54:42.992Z,100859.50
2023-01-31T00:57:48.687Z,100869.56
2023-01-31T01:00:53.300Z,100874.69
2023-01-31T01:03:58.309Z,100878.06
2023-01-31T01:07:03.685Z,100881.19
2023-01-31T01:10:15.656Z,100886.16
2023-01-31T01:13:18.976Z,100893.16
2023-01-31T01:16:26.544Z,100897.28
2023-01-31T01:19:29.737Z,100900.53
2023-01-31T01:22:33.209Z,100917.41
2023-01-31T01:25:44.434Z,100896.13
2023-01-31T01:28:49.107Z,100902.09
2023-01-31T01:31:53.852Z,100906.41
2023-01-31T01:34:57.041Z,100905.84
2023-01-31T01:38:01.224Z,100908.25
2023-01-31T01:41:06.854Z,100906.44
2023-01-31T01:44:46.501Z,100911.72
2023-01-31T01:47:54.725Z,100921.38
2023-01-31T01:51:00.008Z,100933.41
2023-01-31T01:54:09.151Z,100933.25
2023-01-31T01:57:18.208Z,100947.00
2023-01-31T02:00:24.637Z,100949.81
2023-01-31T02:03:30.859Z,100963.47
2023-01-31T02:06:37.033Z,100975.31
2023-01-31T02:09:47.976Z,100968.50
2023-01-31T02:12:52.204Z,100976.13
2023-01-31T02:15:56.048Z,100973.56
2023-01-31T02:19:01.830Z,100975.31
2023-01-31T02:22:18.436Z,100971.16
2023-01-31T02:26:15.910Z,100995.00
2023-01-31T02:29:41.030Z,101000.22
2023-01-31T02:32:55.428Z,101005.97
2023-01-31T02:36:13.845Z,101025.78
2023-01-31T02:39:27.533Z,101017.34
2023-01-31T02:42:45.887Z,101007.94
2023-01-31T02:46:01.103Z,101011.38
2023-01-31T02:49:34.527Z,101016.66
2023-01-31T02:52:49.359Z,101014.94
2023-01-31T02:56:18.171Z,101013.41
2023-01-31T02:59:28.309Z,101009.44
2023-01-31T03:02:33.062Z,101013.19
2023-01-31T03:05:42.680Z,101006.75
2023-01-31T03:08:46.573Z,101002.75
2023-01-31T03:11:56.785Z,101008.75
2023-01-31T03:15:19.757Z,101008.13
2023-01-31T03:18:27.143Z,100999.78
2023-01-31T03:21:39.562Z,101009.34
2023-01-31T03:24:47.296Z,101003.63
2023-01-31T03:27:57.429Z,101025.03
2023-01-31T03:31:08.577Z,101019.16
2023-01-31T03:34:15.027Z,101020.19
2023-01-31T03:37:26.589Z,101029.53
2023-01-31T03:40:39.032Z,101037.16
2023-01-31T03:43:53.868Z,101028.81
2023-01-31T03:47:03.303Z,101030.50
2023-01-31T03:50:12.184Z,101040.69
2023-01-31T03:53:23.022Z,101030.34
2023-01-31T03:56:34.638Z,101047.66
2023-01-31T03:59:44.300Z,101040.84
2023-01-31T04:02:53.856Z,101039.19
2023-01-31T04:05:57.293Z,101043.63
2023-01-31T04:09:01.974Z,101042.75
2023-01-31T04:12:05.871Z,101051.47
2023-01-31T04:15:11.335Z,101055.72
2023-01-31T04:18:14.439Z,101062.34
2023-01-31T04:21:17.424Z,101060.59
2023-01-31T04:24:21.740Z,101070.13
2023-01-31T04:27:25.388Z,101062.41
2023-01-31T04:30:28.436Z,101057.00
2023-01-31T04:33:32.042Z,101057.94
2023-01-31T04:36:35.176Z,101058.09
2023-01-31T04:39:39.519Z,101065.72
2023-01-31T04:42:42.600Z,101065.06
2023-01-31T04:45:45.609Z,101073.69
2023-01-31T04:48:48.681Z,101079.72
2023-01-31T04:51:51.872Z,101084.78
2023-01-31T04:54:56.173Z,101082.22
2023-01-31T04:57:59.299Z,101080.47
2023-01-31T05:01:02.406Z,101096.69
2023-01-31T05:04:05.899Z,101089.03
2023-01-31T05:07:09.055Z,101089.09
2023-01-31T05:10:14.322Z,101096.75
2023-01-31T05:13:19.009Z,101085.41
2023-01-31T05:16:22.077Z,101092.31
2023-01-31T05:19:25.072Z,101089.72
2023-01-31T05:22:28.302Z,101097.38
2023-01-31T05:25:32.700Z,101098.34
2023-01-31T05:28:36.227Z,101105.19
2023-01-31T05:31:39.983Z,101088.03
2023-01-31T05:34:46.024Z,101093.69
2023-01-31T05:37:56.336Z,101086.63
2023-01-31T05:41:17.121Z,101101.19
2023-01-31T05:44:20.995Z,101102.03
2023-01-31T05:47:24.849Z,101112.09
2023-01-31T05:50:28.138Z,101100.78
2023-01-31T05:53:31.327Z,101106.75
2023-01-31T05:56:36.059Z,101106.59
2023-01-31T05:59:41.102Z,101115.72
2023-01-31T06:02:48.106Z,101113.13
2023-01-31T06:05:51.193Z,101112.13
2023-01-31T06:08:54.290Z,101106.09
2023-01-31T06:11:58.735Z,101112.72
2023-01-31T06:15:08.520Z,101106.66
2023-01-31T06:18:11.680Z,101111.81
2023-01-31T06:21:16.343Z,101118.53
2023-01-31T06:24:21.541Z,101130.59
2023-01-31T06:27:26.228Z,101122.69
2023-01-31T06:30:29.759Z,101123.53
2023-01-31T06:33:44.948Z,101129.47
2023-01-31T06:36:50.264Z,101140.59
2023-01-31T06:39:54.334Z,101142.25
2023-01-31T06:42:59.273Z,101144.00
2023-01-31T06:46:02.616Z,101152.50
2023-01-31T06:49:06.326Z,101138.72
2023-01-31T06:52:14.106Z,101143.88
2023-01-31T06:55:18.369Z,101142.06
2023-01-31T06:58:23.015Z,101144.69
2023-01-31T07:01:26.723Z,101143.03
2023-01-31T07:04:30.400Z,101134.31
2023-01-31T07:07:33.436Z,101136.81
2023-01-31T07:10:36.529Z,101133.41
2023-01-31T07:13:41.199Z,101135.03
2023-01-31T07:16:44.320Z,101126.41
2023-01-31T07:19:47.247Z,101126.34
2023-01-31T07:22:56.984Z,101116.97
2023-01-31T07:26:02.130Z,101104.09
2023-01-31T07:29:07.138Z,101093.88
2023-01-31T07:32:11.350Z,101104.00
2023-01-31T07:35:14.476Z,101117.78
2023-01-31T07:38:17.539Z,101115.16
2023-01-31T07:41:20.604Z,101115.22
2023-01-31T07:44:25.424Z,101109.16
2023-01-31T07:47:28.762Z,101110.84
2023-01-31T07:50:34.055Z,101115.16
2023-01-31T07:53:41.994Z,101124.50
2023-01-31T07:56:45.199Z,101110.75
2023-01-31T07:59:50.252Z,101101.13
2023-01-31T08:03:13.435Z,101100.22
2023-01-31T08:06:16.625Z,101101.81
2023-01-31T08:09:19.694Z,101103.47
2023-01-31T08:12:22.825Z,101092.19
2023-01-31T08:15:29.443Z,101092.94
2023-01-31T08:19:05.873Z,101098.75
2023-01-31T08:22:13.859Z,101095.16
2023-01-31T08:25:20.741Z,101095.13
2023-01-31T08:28:23.933Z,101091.53
2023-01-31T08:31:29.706Z,101090.66
2023-01-31T08:34:32.942Z,101077.75
2023-01-31T08:37:35.903Z,101091.41
2023-01-31T08:40:38.870Z,101081.03
2023-01-31T08:43:54.907Z,101081.94
2023-01-31T08:47:02.699Z,101078.66
2023-01-31T08:50:13.176Z,101079.34
2023-01-31T08:53:25.211Z,101075.09
2023-01-31T08:56:31.337Z,101068.16
2023-01-31T08:59:34.562Z,101076.53
2023-01-31T09:02:46.312Z,101071.38
2023-01-31T09:05:49.974Z,101062.94
2023-01-31T09:08:53.247Z,101074.88
2023-01-31T09:11:56.444Z,101073.94
2023-01-31T09:15:04.043Z,101063.47
2023-01-31T09:18:09.166Z,101054.84
2023-01-31T09:21:18.107Z,101054.84
2023-01-31T09:24:21.140Z,101061.63
2023-01-31T09:27:24.746Z,101045.19
2023-01-31T09:30:31.226Z,101052.03
2023-01-31T09:33:37.149Z,101047.59
2023-01-31T09:36:40.372Z,101051.59
2023-01-31T09:39:43.462Z,101044.59
2023-01-31T09:42:49.318Z,101039.38
2023-01-31T09:45:54.957Z,101045.25
2023-01-31T09:49:05.956Z,101033.94
2023-01-31T09:52:16.431Z,101038.91
2023-01-31T09:55:26.103Z,101034.34
2023-01-31T09:58:38.526Z,101027.34
2023-01-31T10:01:50.512Z,101026.25
2023-01-31T10:05:26.133Z,101018.34
2023-01-31T10:08:46.671Z,101010.28
2023-01-31T10:11:56.143Z,101020.59
2023-01-31T10:15:20.624Z,101011.09
2023-01-31T10:18:35.129Z,101010.81
2023-01-31T10:21:45.095Z,101001.25
2023-01-31T10:24:54.755Z,100994.97
2023-01-31T10:28:03.650Z,100988.91
2023-01-31T10:31:15.932Z,100982.91
2023-01-31T10:34:25.133Z,100982.97
2023-01-31T10:37:36.055Z,100982.00
2023-01-31T10:40:43.787Z,100969.88
2023-01-31T10:43:55.294Z,100961.50
2023-01-31T10:47:00.732Z,100947.84
2023-01-31T10:50:15.993Z,100953.00
2023-01-31T10:53:40.232Z,100942.69
2023-01-31T10:56:45.655Z,100934.84
2023-01-31T10:59:55.621Z,100926.91
2023-01-31T11:03:00.273Z,100920.06
2023-01-31T11:06:04.001Z,100922.16
2023-01-31T11:09:14.339Z,100909.00
2023-01-31T11:12:19.921Z,100901.94
2023-01-31T11:15:28.451Z,100894.91
2023-01-31T11:18:38.808Z,100888.00
2023-01-31T11:21:42.156Z,100882.53
2023-01-31T11:24:50.373Z,100888.81
2023-01-31T11:28:02.383Z,100872.63
2023-01-31T11:31:09.764Z,100863.91
2023-01-31T11:34:22.813Z,100864.75
2023-01-31T11:37:26.359Z,100846.69
2023-01-31T11:40:33.585Z,100849.34
2023-01-31T11:43:36.700Z,100828.97
2023-01-31T11:46:48.036Z,100827.97
2023-01-31T11:49:51.450Z,100824.69
2023-01-31T11:53:00.238Z,100819.47
2023-01-31T11:56:15.525Z,100809.16
2023-01-31T11:59:22.941Z,100798.88
2023-01-31T12:02:34.464Z,100789.31
2023-01-31T12:05:47.705Z,100778.00
2023-01-31T12:10:38.637Z,100763.28
2023-01-31T12:13:30.400Z,100753.84
2023-01-31T12:16:35.306Z,100740.28
2023-01-31T12:19:58.455Z,100723.31
2023-01-31T12:23:17.122Z,100717.63
2023-01-31T12:26:29.329Z,100710.09
2023-01-31T12:30:05.047Z,100692.31
2023-01-31T12:33:37.007Z,100690.56
2023-01-31T12:36:57.284Z,100682.44
2023-01-31T12:40:24.759Z,100681.06
2023-01-31T12:43:52.706Z,100674.34
2023-01-31T12:47:19.869Z,100656.03
2023-01-31T12:50:31.297Z,100655.88
2023-01-31T12:53:58.382Z,100657.00
2023-01-31T12:57:25.970Z,100637.38
2023-01-31T13:00:40.389Z,100643.03
2023-01-31T13:04:04.816Z,100626.09
2023-01-31T13:07:15.479Z,100611.59
2023-01-31T13:10:38.251Z,100598.78
2023-01-31T13:13:52.920Z,100603.19
2023-01-31T13:17:07.274Z,100595.28
2023-01-31T13:20:29.797Z,100582.47
2023-01-31T13:23:42.030Z,100573.81
2023-01-31T13:26:49.677Z,100566.38
2023-01-31T13:29:59.108Z,100569.09
2023-01-31T13:33:17.329Z,100556.97
2023-01-31T13:36:27.100Z,100555.16
2023-01-31T13:39:38.441Z,100555.16
2023-01-31T13:42:41.776Z,100551.81
2023-01-31T13:45:52.721Z,100534.53
2023-01-31T13:49:01.040Z,100535.44
2023-01-31T13:52:13.742Z,100533.56
2023-01-31T13:55:21.930Z,100531.75
2023-01-31T13:58:29.735Z,100532.56
2023-01-31T14:01:44.525Z,100523.91
2023-01-31T14:04:52.510Z,100531.56
2023-01-31T14:08:33.724Z,100534.22
2023-01-31T14:11:47.158Z,100534.22
2023-01-31T14:14:52.316Z,100529.84
2023-01-31T14:18:09.523Z,100520.38
2023-01-31T14:21:55.157Z,100511.81
2023-01-31T14:25:02.143Z,100516.97
2023-01-31T14:28:07.647Z,100512.47
2023-01-31T14:31:14.719Z,100508.16
2023-01-31T14:34:25.974Z,100501.34
2023-01-31T14:37:42.743Z,100496.03
2023-01-31T14:40:58.772Z,100503.00
2023-01-31T14:44:17.483Z,100480.56
2023-01-31T14:53:09.746Z,100475.09
2023-01-31T14:56:43.107Z,100472.34
2023-01-31T14:59:55.607Z,100473.13
2023-01-31T15:03:09.939Z,100475.63
2023-01-31T15:06:23.686Z,100460.06
2023-01-31T15:09:42.045Z,100457.25
2023-01-31T15:13:00.699Z,100458.09
2023-01-31T15:16:07.345Z,100452.78
2023-01-31T15:19:16.377Z,100450.22
2023-01-31T15:22:26.965Z,100457.72
2023-01-31T15:25:44.152Z,100453.31
2023-01-31T15:28:53.036Z,100442.91
2023-01-31T15:32:03.861Z,100453.09
2023-01-31T15:35:19.760Z,100443.44
2023-01-31T15:38:31.269Z,100447.53
2023-01-31T15:41:40.149Z,100443.28
2023-01-31T15:44:48.944Z,100434.38
2023-01-31T15:48:00.086Z,100437.66
2023-01-31T15:51:03.417Z,100435.13
2023-01-31T15:54:16.863Z,100426.31
2023-01-31T15:58:43.021Z,100418.59
2023-01-31T16:01:49.981Z,100421.03
2023-01-31T16:04:53.819Z,100408.13
2023-01-31T16:07:59.125Z,100416.50
2023-01-31T16:11:04.769Z,100412.19
2023-01-31T16:14:14.660Z,100400.13
2023-01-31T16:17:20.552Z,100401.03
2023-01-31T16:20:46.064Z,100402.63
2023-01-31T16:24:02.903Z,100411.19
2023-01-31T16:27:16.587Z,100405.81
2023-01-31T16:30:20.587Z,100416.72
2023-01-31T16:33:27.881Z,100424.47
2023-01-31T16:36:36.330Z,100435.38
2023-01-31T16:39:44.090Z,100431.88
2023-01-31T16:42:48.532Z,100424.97
2023-01-31T16:45:54.122Z,100422.38
2023-01-31T16:49:07.388Z,100423.91
2023-01-31T16:52:18.185Z,100434.72
2023-01-31T16:55:24.310Z,100406.22
2023-01-31T16:58:47.929Z,100397.41
2023-01-31T17:02:04.001Z,100395.81
2023-01-31T17:05:20.187Z,100380.41
2023-01-31T17:08:25.416Z,100387.22
2023-01-31T17:11:41.629Z,100381.09
2023-01-31T17:15:20.453Z,100382.91
2023-01-31T17:18:26.472Z,100390.75
2023-01-31T17:21:39.684Z,100398.34
2023-01-31T17:24:43.307Z,100382.84
2023-01-31T17:27:47.985Z,100375.16
2023-01-31T17:30:51.097Z,100377.59
2023-01-31T17:33:57.360Z,100363.59
2023-01-31T17:37:01.891Z,100360.25
2023-01-31T17:40:06.194Z,100357.59
2023-01-31T17:43:25.162Z,100354.91
2023-01-31T17:46:28.379Z,100355.56
2023-01-31T17:49:34.963Z,100345.22
2023-01-31T17:52:40.672Z,100350.34
2023-01-31T17:55:45.214Z,100337.31
2023-01-31T17:58:51.935Z,100321.00
2023-01-31T18:01:56.011Z,100314.91
2023-01-31T18:04:59.548Z,100297.56
2023-01-31T18:08:05.204Z,100299.06
2023-01-31T18:11:10.717Z,100299.06
2023-01-31T18:14:17.066Z,100306.19
2023-01-31T18:17:20.668Z,100321.81
2023-01-31T18:20:24.084Z,100312.88
2023-01-31T18:23:28.737Z,100308.47
2023-01-31T18:26:31.819Z,100316.78
2023-01-31T18:29:34.949Z,100308.09
2023-01-31T18:32:38.552Z,100306.03
2023-01-31T18:35:44.607Z,100300.03
2023-01-31T18:38:51.717Z,100301.44
2023-01-31T18:41:55.022Z,100310.00
2023-01-31T18:44:58.231Z,100298.66
2023-01-31T18:48:01.336Z,100305.47
2023-01-31T18:51:07.898Z,100303.81
2023-01-31T18:54:17.017Z,100281.13
2023-01-31T18:57:20.563Z,100306.88
2023-01-31T19:00:29.597Z,100309.56
2023-01-31T19:03:32.843Z,100305.94
2023-01-31T19:06:40.963Z,100306.16
2023-01-31T19:09:45.273Z,100300.88
2023-01-31T19:12:50.664Z,100301.81
2023-01-31T19:16:00.743Z,100315.28
2023-01-31T19:19:04.484Z,100320.09
2023-01-31T19:22:09.983Z,100345.59
2023-01-31T19:25:18.323Z,100350.34
2023-01-31T19:28:23.071Z,100369.63
2023-01-31T19:31:31.110Z,100440.13
2023-01-31T19:34:36.350Z,100431.44
2023-01-31T19:37:39.413Z,100418.66
2023-01-31T19:40:44.049Z,100381.88
2023-01-31T19:43:49.622Z,100386.75
2023-01-31T19:46:53.850Z,100389.81
2023-01-31T19:49:56.863Z,100396.16
2023-01-31T19:52:59.923Z,100366.88
2023-01-31T19:56:05.301Z,100359.84
2023-01-31T19:59:08.395Z,100384.47
2023-01-31T20:02:19.701Z,100385.44
2023-01-31T20:05:46.037Z,100400.00
2023-01-31T20:08:54.216Z,100399.03
2023-01-31T20:11:58.854Z,100393.03
2023-01-31T20:15:02.357Z,100406.38
2023-01-31T20:18:06.661Z,100393.13
2023-01-31T20:21:14.789Z,100399.56
2023-01-31T20:24:18.352Z,100409.19
2023-01-31T20:27:22.813Z,100411.78
2023-01-31T20:30:28.506Z,100406.84
2023-01-31T20:33:32.395Z,100409.56
2023-01-31T20:36:38.668Z,100433.75
2023-01-31T20:39:41.828Z,100439.22
2023-01-31T20:42:48.817Z,100432.84
2023-01-31T20:46:04.739Z,100432.69
2023-01-31T20:49:16.211Z,100428.00
2023-01-31T20:52:22.609Z,100439.75
2023-01-31T20:55:27.412Z,100440.13
2023-01-31T20:58:36.017Z,100461.13
2023-01-31T21:01:40.743Z,100460.78
2023-01-31T21:04:44.113Z,100471.84
2023-01-31T21:07:47.512Z,100472.66
2023-01-31T21:10:51.692Z,100487.16
2023-01-31T21:13:58.777Z,100506.66
2023-01-31T21:17:02.015Z,100492.84
2023-01-31T21:20:07.683Z,100504.44
2023-01-31T21:23:11.534Z,100516.47
2023-01-31T21:26:15.019Z,100524.72
2023-01-31T21:29:19.830Z,100523.81
2023-01-31T21:32:25.987Z,100536.09
2023-01-31T21:35:33.322Z,100540.06
2023-01-31T21:38:41.613Z,100530.19
2023-01-31T21:42:03.294Z,100558.34
2023-01-31T21:45:15.323Z,100567.75
2023-01-31T21:48:31.274Z,100611.78
2023-01-31T21:51:38.711Z,100594.88
2023-01-31T21:54:41.927Z,100528.03
2023-01-31T21:57:52.741Z,100525.94
2023-01-31T22:01:07.461Z,100528.94
2023-01-31T22:04:14.650Z,100527.31
2023-01-31T22:07:17.856Z,100540.13
2023-01-31T22:10:37.873Z,100515.25
2023-01-31T22:13:44.634Z,100514.78
2023-01-31T22:16:53.218Z,100519.22
2023-01-31T22:19:56.400Z,100497.78
2023-01-31T22:23:02.574Z,100494.47
2023-01-31T22:26:07.593Z,100496.00
2023-01-31T22:29:14.601Z,100503.78
2023-01-31T22:32:19.592Z,100501.84
2023-01-31T22:35:22.966Z,100495.59
2023-01-31T22:38:26.669Z,100489.31
2023-01-31T22:41:29.889Z,100489.91
2023-01-31T22:44:33.217Z,100485.97
2023-01-31T22:47:37.837Z,100504.63
2023-01-31T22:50:41.825Z,100494.88
2023-01-31T22:53:45.259Z,100499.19
2023-01-31T22:56:49.656Z,100500.63
2023-01-31T22:59:52.763Z,100497.75
2023-01-31T23:03:00.851Z,100497.66
2023-01-31T23:06:04.720Z,100503.53
2023-01-31T23:09:10.722Z,100505.94
2023-01-31T23:12:16.582Z,100520.06
2023-01-31T23:15:25.179Z,100519.78
2023-01-31T23:18:36.796Z,100514.81
2023-01-31T23:21:45.368Z,100528.41
2023-01-31T23:24:48.499Z,100535.16
2023-01-31T23:27:51.836Z,100525.59
2023-01-31T23:30:55.098Z,100519.69
2023-01-31T23:34:00.809Z,100527.50
2023-01-31T23:37:06.582Z,100529.06
2023-01-31T23:40:12.021Z,100531.31
2023-01-31T23:43:15.088Z,100533.81
2023-01-31T23:46:18.562Z,100549.91
2023-01-31T23:49:22.949Z,100550.81
2023-01-31T23:52:26.184Z,100543.69
2023-01-31T23:55:29.426Z,100543.38
2023-01-31T23:58:33.893Z,100545.47
